Sainte-Adèle, Québec

4:37 PM EDT on August 31, 2015 (GMT -0400)
Glend Wexford | | Change Station
CLOSE
Current Station
Personal Weather Station
Location: Sainte-Adèle, QUéBEC
Elevation: 300 ft
Nearby Weather Stations

Elev 300 ft 45.99 °N, 74.12 °W | Updated 4 minutes ago

Mostly Cloudy
Mostly Cloudy
74.8 °F
Feels Like 78 °F
N
0.0
Wind Variable Wind from North
Gusts 0.0 mph

Today
High -- | Low -- °F
--% Chance of Precip.
Yesterday
High -- | Low -- °F
Precip. -- in
6:15 AM 7:37 PM
Waning Gibbous, 94% visible
Pressure 29.92 in
Visibility 15.0 miles
Clouds Scattered Clouds 4400 ft
Mostly Cloudy 24000 ft
Heat Index 78 °F
Dew Point 54 °F
Humidity 48%
Rainfall Not available.
Snow Depth Not available.
UV 2.0 out of 12
Pollen Not available.
Air Quality Not available.
Flu Activity Not available.
METAR CYMX 312000Z 26011G16KT 210V310 15SM SCT044 BKN240 24/18 A2992 RMK SC4CI1 SLP131 DENSITY ALT 1400FT
Pressure 29.92 in
Visibility 15.0 miles
Clouds Scattered Clouds 4400 ft
Mostly Cloudy 24000 ft
Heat Index 78 °F
Dew Point 54 °F
Humidity 48%
Rainfall Not available.
Snow Depth Not available.
UV 2.0 out of 12
Pollen Not available.
Air Quality Not available.
Flu Activity Not available.
METAR CYMX 312000Z 26011G16KT 210V310 15SM SCT044 BKN240 24/18 A2992 RMK SC4CI1 SLP131 DENSITY ALT 1400FT

10-Day Weather Forecast

×

Almanac

Astronomy

Aug. 31, 2015 Rise Set
Actual Time
Civil Twilight
Nautical Twilight
Astronomical Twilight
Moon
Length of Visible Light
Length of Day
Tomorrow will be .
, % of the Moon is Illuminated

Today's Extremes

Country Highs Country Lows

Community

WunderPhotos

Upload Photos

1,851,357 photos uploaded!

WunderBlogs® & News

Nearby

Air Quality

  Air Quality AQ Index Pollutant
Not available.

Snow Depth

Station Depth Elevation

Earthquake Activity

City Distance Mag. Time & Date
Minimum magnitude displayed is 2.5.

Coastal Water Temperatures

Place Temperature

Stations

Nearby Weather Stations

Station Location Temp. Windchill Dew Point Humidity Wind Precip. Elev Updated Type